Time;durP1;ratioP1;P1;durP2;ratioP2;P2;SDS_P1;SDS_P2;PMS_P1;PMS_P2;Temp;Humidity;BMP_temperature;BMP_pressure;BME280_temperature;BME280_humidity;BME280_pressure;Samples;Min_cycle;Max_cycle;Signal;HPM_P1;HPM_P2
2022/03/10 00:00:11;;;;;;;16.48;10.07;;;4.40;96.50;;;;;;4905993;29;20028;-91
2022/03/10 00:02:38;;;;;;;17.35;10.77;;;4.50;96.50;;;;;;4905991;29;20032;-91
2022/03/10 00:05:04;;;;;;;16.17;10.43;;;4.50;96.50;;;;;;4890260;29;20043;-91
2022/03/10 00:07:29;;;;;;;16.27;10.40;;;4.40;96.50;;;;;;4905784;29;20028;-91
2022/03/10 00:09:55;;;;;;;16.00;9.52;;;4.40;96.50;;;;;;4907344;29;20032;-91
2022/03/10 00:12:22;;;;;;;16.42;10.65;;;4.40;96.80;;;;;;4905711;29;20036;-90
2022/03/10 00:14:48;;;;;;;17.35;9.85;;;4.30;96.60;;;;;;4905980;29;20044;-90
2022/03/10 00:17:14;;;;;;;15.90;10.15;;;4.30;96.70;;;;;;4906496;29;20112;-90
2022/03/10 00:19:43;;;;;;;15.93;10.77;;;4.30;96.70;;;;;;4906705;29;20040;-90
2022/03/10 00:22:11;;;;;;;16.77;11.05;;;4.30;96.70;;;;;;4905635;29;20064;-90
2022/03/10 00:24:38;;;;;;;15.63;10.43;;;4.20;96.70;;;;;;4905654;29;20032;-89
2022/03/10 00:27:04;;;;;;;16.05;10.43;;;4.20;96.80;;;;;;4906651;29;20036;-90
2022/03/10 00:29:30;;;;;;;17.70;10.30;;;4.20;96.90;;;;;;4906473;29;20103;-90
2022/03/10 00:31:56;;;;;;;16.95;10.82;;;4.10;96.90;;;;;;4907142;29;20115;-90
2022/03/10 00:34:21;;;;;;;16.33;10.05;;;4.10;96.90;;;;;;4907545;29;20032;-90
2022/03/10 00:36:47;;;;;;;15.77;10.00;;;4.10;96.90;;;;;;4909406;29;20044;-90
2022/03/10 00:39:13;;;;;;;14.07;9.02;;;4.10;96.90;;;;;;4909094;29;20109;-90
2022/03/10 00:41:38;;;;;;;14.98;9.68;;;4.10;97.00;;;;;;4910245;29;20410;-87
2022/03/10 00:44:04;;;;;;;13.63;8.90;;;4.20;97.00;;;;;;4909897;29;20435;-89
2022/03/10 00:46:30;;;;;;;14.80;9.38;;;4.10;97.00;;;;;;4907029;29;20107;-90
2022/03/10 00:48:56;;;;;;;16.13;9.35;;;4.20;97.00;;;;;;4893060;29;20040;-89
2022/03/10 00:51:21;;;;;;;14.63;9.95;;;4.20;96.90;;;;;;4927581;29;20480;-88
2022/03/10 00:53:47;;;;;;;16.00;10.18;;;4.20;96.90;;;;;;4911917;29;20032;-89
2022/03/10 00:56:13;;;;;;;14.38;9.15;;;4.10;96.90;;;;;;4908931;29;20486;-88
2022/03/10 00:58:39;;;;;;;12.65;8.45;;;4.10;97.00;;;;;;4907578;29;20036;-90
2022/03/10 01:01:04;;;;;;;14.05;8.80;;;4.00;97.10;;;;;;4907512;29;20504;-90
2022/03/10 01:03:31;;;;;;;16.77;9.85;;;4.10;97.20;;;;;;4908626;29;20498;-90
2022/03/10 01:05:57;;;;;;;14.15;9.48;;;4.00;97.20;;;;;;4907360;29;20032;-89
2022/03/10 01:08:22;;;;;;;14.80;8.55;;;4.00;97.20;;;;;;4906123;29;20036;-90
2022/03/10 01:10:48;;;;;;;15.20;9.50;;;4.00;97.20;;;;;;4905648;29;20032;-90
2022/03/10 01:13:16;;;;;;;15.05;9.50;;;4.00;97.20;;;;;;4924095;29;20482;-89
2022/03/10 01:15:45;;;;;;;13.38;8.07;;;3.90;97.20;;;;;;4927270;29;20032;-89
2022/03/10 01:18:11;;;;;;;15.27;9.90;;;4.00;97.30;;;;;;4909349;29;20036;-92
2022/03/10 01:20:37;;;;;;;14.45;8.88;;;3.90;97.30;;;;;;4908029;29;20115;-89
2022/03/10 01:23:03;;;;;;;14.35;8.50;;;4.00;97.40;;;;;;4925392;29;20139;-89
2022/03/10 01:25:29;;;;;;;16.77;9.50;;;3.90;97.30;;;;;;4915034;29;20095;-88
2022/03/10 01:27:54;;;;;;;14.27;8.57;;;3.90;97.30;;;;;;4912417;29;20067;-91
2022/03/10 01:30:20;;;;;;;14.23;9.07;;;3.90;97.30;;;;;;4913611;29;20103;-89
2022/03/10 01:32:47;;;;;;;13.95;8.63;;;3.90;97.30;;;;;;4914245;29;20391;-87
2022/03/10 01:35:14;;;;;;;15.70;9.55;;;3.90;97.40;;;;;;4914786;29;20037;-88
2022/03/10 01:37:40;;;;;;;13.68;8.73;;;3.80;97.50;;;;;;4907562;29;20053;-89
2022/03/10 01:40:08;;;;;;;14.48;9.05;;;3.80;97.50;;;;;;4904937;29;20052;-90
2022/03/10 01:42:34;;;;;;;13.73;8.70;;;3.80;97.50;;;;;;4920244;29;20129;-88
2022/03/10 01:45:00;;;;;;;13.32;8.57;;;3.70;97.60;;;;;;4905441;29;20088;-90
2022/03/10 01:47:26;;;;;;;14.35;9.00;;;3.70;97.60;;;;;;4904760;29;20032;-89
2022/03/10 01:49:51;;;;;;;16.27;9.57;;;3.70;97.70;;;;;;4921024;29;20038;-91
2022/03/10 01:52:19;;;;;;;14.80;9.07;;;3.70;97.70;;;;;;4904154;29;20059;-90
2022/03/10 01:54:45;;;;;;;16.52;9.60;;;3.70;97.80;;;;;;4904525;29;20040;-91
2022/03/10 01:57:11;;;;;;;14.98;9.55;;;3.60;97.80;;;;;;4904581;29;20127;-90
2022/03/10 01:59:39;;;;;;;13.52;8.85;;;3.60;97.90;;;;;;4904686;29;20032;-90
2022/03/10 02:02:06;;;;;;;15.38;9.63;;;3.50;97.90;;;;;;4906794;29;20066;-92
2022/03/10 02:04:32;;;;;;;16.63;9.23;;;3.50;98.00;;;;;;4916282;29;20032;-89
2022/03/10 02:07:02;;;;;;;14.15;8.95;;;3.50;98.10;;;;;;4914376;29;20322;-89
2022/03/10 02:12:19;;;;;;;13.95;8.88;;;3.40;98.20;;;;;;4929829;29;20103;-90
2022/03/10 02:17:31;;;;;;;13.68;8.90;;;3.30;98.40;;;;;;4914149;29;20063;-88
2022/03/10 02:19:58;;;;;;;14.13;9.10;;;3.30;98.40;;;;;;4911801;29;20036;-89
2022/03/10 02:22:25;;;;;;;15.50;9.43;;;3.30;98.50;;;;;;4926105;29;20047;-88
2022/03/10 02:24:52;;;;;;;12.32;7.68;;;3.30;98.50;;;;;;4904503;29;20035;-91
2022/03/10 02:27:26;;;;;;;15.10;9.75;;;3.20;98.50;;;;;;4903555;29;20479;-91
2022/03/10 02:29:58;;;;;;;14.27;9.50;;;3.20;98.50;;;;;;4903784;29;20052;-90
2022/03/10 02:32:24;;;;;;;14.70;9.60;;;3.20;98.60;;;;;;4903319;29;20070;-92
2022/03/10 02:34:52;;;;;;;16.35;9.98;;;3.20;98.70;;;;;;4913654;29;20039;-89
2022/03/10 02:37:18;;;;;;;15.95;9.57;;;3.10;98.80;;;;;;4907331;29;20050;-90
2022/03/10 02:39:45;;;;;;;13.15;9.20;;;3.10;98.90;;;;;;4919703;29;20486;-91
2022/03/10 02:42:14;;;;;;;14.32;9.18;;;3.00;99.00;;;;;;4902984;29;20040;-90
2022/03/10 02:44:45;;;;;;;15.93;9.48;;;3.00;99.10;;;;;;4902059;29;20036;-89
2022/03/10 02:47:10;;;;;;;17.02;9.65;;;3.00;99.20;;;;;;4902173;29;20051;-90
2022/03/10 02:49:37;;;;;;;15.93;9.55;;;2.90;99.20;;;;;;4901992;29;20028;-90
2022/03/10 02:52:03;;;;;;;16.38;9.45;;;2.90;99.30;;;;;;4902160;29;20123;-90
2022/03/10 02:54:29;;;;;;;15.88;9.35;;;2.90;99.40;;;;;;4919847;29;20115;-91
2022/03/10 02:56:57;;;;;;;15.18;9.18;;;2.90;99.40;;;;;;4903512;29;20052;-90
2022/03/10 02:59:23;;;;;;;13.98;8.68;;;2.90;99.40;;;;;;4903071;29;20510;-90
2022/03/10 03:01:49;;;;;;;14.68;9.18;;;2.90;99.40;;;;;;4902901;29;20135;-90
2022/03/10 03:04:15;;;;;;;14.02;9.50;;;2.90;99.40;;;;;;4902693;29;20044;-88
2022/03/10 03:06:41;;;;;;;12.57;8.80;;;2.90;99.40;;;;;;4903266;29;20465;-90
2022/03/10 03:09:13;;;;;;;12.88;9.60;;;2.90;99.50;;;;;;4903085;29;20036;-89
2022/03/10 03:11:38;;;;;;;15.70;9.35;;;2.90;99.60;;;;;;4902947;29;20036;-89
2022/03/10 03:14:09;;;;;;;14.57;9.23;;;2.80;99.60;;;;;;4919980;29;20479;-90
2022/03/10 03:16:35;;;;;;;15.02;9.77;;;2.80;99.70;;;;;;4888568;29;20139;-90
2022/03/10 03:19:01;;;;;;;13.52;9.25;;;2.70;99.80;;;;;;4902591;29;20067;-90
2022/03/10 03:21:46;;;;;;;14.75;9.32;;;2.70;99.80;;;;;;4903345;29;20044;-89
2022/03/10 03:24:36;;;;;;;17.67;9.55;;;2.70;99.90;;;;;;4903111;29;20056;-90
2022/03/10 03:27:04;;;;;;;17.50;9.60;;;2.60;99.90;;;;;;4900494;29;20479;-90
2022/03/10 03:29:31;;;;;;;16.08;10.13;;;2.60;99.90;;;;;;4902287;29;20079;-90
2022/03/10 03:31:59;;;;;;;15.35;9.65;;;2.50;99.90;;;;;;4920137;29;20063;-89
2022/03/10 03:34:28;;;;;;;15.18;9.52;;;2.40;99.90;;;;;;4920468;29;20032;-89
2022/03/10 03:36:59;;;;;;;13.98;8.95;;;2.40;99.90;;;;;;4903832;29;20074;-90
2022/03/10 03:39:25;;;;;;;16.17;10.55;;;2.30;99.90;;;;;;4903938;29;20020;-88
2022/03/10 03:41:50;;;;;;;15.65;9.70;;;2.30;99.90;;;;;;4918424;29;20072;-89
2022/03/10 03:44:16;;;;;;;15.25;9.55;;;2.30;99.90;;;;;;4901541;29;20035;-89
2022/03/10 03:46:42;;;;;;;14.48;8.80;;;2.30;99.90;;;;;;4918094;29;20043;-90
2022/03/10 03:49:08;;;;;;;16.17;10.10;;;2.30;99.90;;;;;;4901513;29;20032;-89
2022/03/10 03:51:35;;;;;;;15.70;9.43;;;2.30;99.90;;;;;;4901085;29;20032;-90
2022/03/10 03:54:01;;;;;;;16.83;9.55;;;2.30;99.90;;;;;;4917841;29;20055;-88
2022/03/10 03:56:27;;;;;;;15.73;9.60;;;2.40;99.90;;;;;;4918280;29;20483;-89
2022/03/10 03:58:56;;;;;;;17.38;9.35;;;2.40;99.90;;;;;;4900948;29;20054;-91
2022/03/10 04:01:21;;;;;;;14.23;8.65;;;2.40;99.90;;;;;;4900754;29;20479;-89
2022/03/10 04:03:47;;;;;;;15.45;9.20;;;2.40;99.90;;;;;;4901100;29;20036;-87
2022/03/10 04:06:13;;;;;;;14.93;8.80;;;2.40;99.90;;;;;;4901235;29;20042;-90
2022/03/10 04:08:38;;;;;;;17.15;10.18;;;2.40;99.90;;;;;;4901941;29;20123;-89
2022/03/10 04:11:04;;;;;;;17.60;10.50;;;2.30;99.90;;;;;;4901794;29;20120;-90
2022/03/10 04:13:31;;;;;;;15.43;9.75;;;2.30;99.90;;;;;;4903933;29;20032;-88
2022/03/10 04:15:59;;;;;;;19.27;11.48;;;2.30;99.90;;;;;;4903526;29;20024;-89
2022/03/10 04:18:25;;;;;;;16.00;9.80;;;2.20;99.90;;;;;;4903918;29;20044;-90
2022/03/10 04:20:51;;;;;;;16.38;10.32;;;2.10;99.90;;;;;;4921238;29;20083;-90
2022/03/10 04:23:17;;;;;;;18.05;10.40;;;2.10;99.90;;;;;;4904120;29;20032;-91
2022/03/10 04:25:43;;;;;;;17.15;9.73;;;2.00;99.90;;;;;;4904458;29;20032;-91
2022/03/10 04:28:09;;;;;;;20.33;12.18;;;2.00;99.90;;;;;;4905183;29;20040;-90
2022/03/10 04:30:37;;;;;;;17.38;10.73;;;1.90;99.90;;;;;;4907288;29;20044;-90
2022/03/10 04:33:02;;;;;;;19.70;12.60;;;1.90;99.90;;;;;;4908400;29;20043;-90
2022/03/10 04:35:29;;;;;;;18.35;11.55;;;1.90;99.90;;;;;;4923039;29;20037;-91
2022/03/10 04:37:55;;;;;;;16.35;10.10;;;1.80;99.90;;;;;;4906083;29;20132;-93
2022/03/10 04:40:22;;;;;;;16.85;10.55;;;1.80;99.90;;;;;;4912145;29;20501;-92
2022/03/10 04:42:49;;;;;;;17.17;10.95;;;1.80;99.90;;;;;;4936086;29;20025;-93
2022/03/10 04:45:15;;;;;;;16.30;10.88;;;1.70;99.90;;;;;;4926373;29;20023;-91
2022/03/10 04:47:41;;;;;;;16.63;9.68;;;1.70;99.90;;;;;;4926095;29;20065;-88
2022/03/10 04:50:09;;;;;;;17.75;10.77;;;1.70;99.90;;;;;;4925242;29;20075;-89
2022/03/10 04:52:35;;;;;;;17.67;10.68;;;1.70;99.90;;;;;;4942198;29;20024;-88
2022/03/10 04:55:06;;;;;;;17.23;10.50;;;1.70;99.90;;;;;;4925537;29;20025;-92
2022/03/10 04:57:31;;;;;;;17.75;10.35;;;1.80;99.90;;;;;;4927471;29;20032;-92
2022/03/10 04:59:57;;;;;;;16.10;9.55;;;1.80;99.90;;;;;;4927530;29;20035;-86
2022/03/10 05:02:23;;;;;;;16.67;9.88;;;1.80;99.90;;;;;;4927912;29;20020;-89
2022/03/10 05:04:48;;;;;;;16.42;9.48;;;1.80;99.90;;;;;;4927592;29;20028;-91
2022/03/10 05:07:14;;;;;;;16.95;10.00;;;1.80;99.90;;;;;;4927409;29;20036;-94
2022/03/10 05:09:40;;;;;;;15.18;9.38;;;1.90;99.90;;;;;;4911725;29;20053;-91
2022/03/10 05:12:06;;;;;;;19.45;10.80;;;1.90;99.90;;;;;;4926931;29;20059;-90
2022/03/10 05:14:31;;;;;;;14.52;8.93;;;1.90;99.90;;;;;;4926753;29;20323;-90
2022/03/10 05:16:57;;;;;;;17.05;9.13;;;1.90;99.90;;;;;;4927014;29;20079;-89
2022/03/10 05:19:23;;;;;;;15.93;9.30;;;1.80;99.90;;;;;;4916374;29;20111;-90
2022/03/10 05:21:50;;;;;;;14.23;9.05;;;1.80;99.90;;;;;;4917536;29;20036;-91
2022/03/10 05:24:15;;;;;;;14.57;9.10;;;1.80;99.90;;;;;;4914865;29;20024;-91
2022/03/10 05:26:41;;;;;;;16.67;9.73;;;1.70;99.90;;;;;;4906318;29;20168;-90
2022/03/10 05:29:07;;;;;;;15.73;9.10;;;1.80;99.90;;;;;;4908698;29;20117;-89
2022/03/10 05:31:34;;;;;;;15.48;9.50;;;1.70;99.90;;;;;;4914445;29;20483;-88
2022/03/10 05:34:01;;;;;;;15.23;9.07;;;1.70;99.90;;;;;;4914128;29;20111;-90
2022/03/10 05:36:27;;;;;;;14.20;8.32;;;1.80;99.90;;;;;;4894248;29;20291;-88
2022/03/10 05:38:52;;;;;;;16.67;9.80;;;1.80;99.90;;;;;;4908995;29;20044;-87
2022/03/10 05:41:19;;;;;;;14.88;9.43;;;1.80;99.90;;;;;;4911720;29;20032;-89
2022/03/10 05:43:44;;;;;;;14.65;9.07;;;1.80;99.90;;;;;;4897831;29;20039;-90
2022/03/10 05:46:11;;;;;;;14.75;9.00;;;1.80;99.90;;;;;;4912074;29;20032;-89
2022/03/10 05:48:37;;;;;;;16.67;9.55;;;1.80;99.90;;;;;;4920611;29;20439;-89
2022/03/10 05:51:02;;;;;;;16.08;9.63;;;1.80;99.90;;;;;;4910147;29;20087;-90
2022/03/10 05:53:29;;;;;;;16.27;9.30;;;1.80;99.90;;;;;;4908244;29;20044;-89
2022/03/10 05:55:54;;;;;;;14.15;9.27;;;1.80;99.90;;;;;;4903278;29;20036;-88
2022/03/10 05:58:20;;;;;;;15.43;9.30;;;1.80;99.90;;;;;;4903129;29;20419;-89
2022/03/10 06:00:45;;;;;;;16.95;10.20;;;1.80;99.90;;;;;;4890020;29;20041;-90
2022/03/10 06:03:12;;;;;;;17.50;9.43;;;1.80;99.90;;;;;;4890662;29;20036;-88
2022/03/10 06:05:37;;;;;;;15.35;8.65;;;1.80;99.90;;;;;;4869753;29;20040;-89
2022/03/10 06:08:04;;;;;;;16.13;9.05;;;1.70;99.90;;;;;;4886375;29;20036;-91
2022/03/10 06:10:31;;;;;;;14.30;9.10;;;1.70;99.90;;;;;;4884802;29;20045;-89
2022/03/10 06:12:56;;;;;;;15.27;8.82;;;1.70;99.90;;;;;;4883136;29;20396;-88
2022/03/10 06:15:22;;;;;;;15.80;9.35;;;1.70;99.90;;;;;;4883554;29;20076;-89
2022/03/10 06:17:48;;;;;;;15.68;8.98;;;1.70;99.90;;;;;;4884632;29;20056;-93
2022/03/10 06:20:15;;;;;;;15.18;9.05;;;1.70;99.90;;;;;;4884400;29;20092;-89
2022/03/10 06:22:41;;;;;;;15.10;9.38;;;1.70;99.90;;;;;;4883296;29;20072;-91
2022/03/10 06:25:09;;;;;;;16.48;9.68;;;1.70;99.90;;;;;;4882304;29;20032;-89
2022/03/10 06:27:35;;;;;;;14.85;9.50;;;1.70;99.90;;;;;;4882536;29;20491;-89
2022/03/10 06:30:01;;;;;;;14.55;8.70;;;1.70;99.90;;;;;;4882000;29;20526;-90
2022/03/10 06:32:27;;;;;;;17.55;9.50;;;1.70;99.90;;;;;;4882946;29;20078;-88
2022/03/10 06:34:56;;;;;;;15.57;9.45;;;1.70;99.90;;;;;;4882066;29;20068;-86
2022/03/10 06:37:21;;;;;;;15.70;9.50;;;1.70;99.90;;;;;;4882267;29;20037;-88
2022/03/10 06:39:47;;;;;;;16.15;9.25;;;1.80;99.90;;;;;;4866123;29;20857;-88
2022/03/10 06:42:14;;;;;;;17.45;9.40;;;1.70;99.90;;;;;;4883085;29;20128;-90
2022/03/10 06:44:40;;;;;;;16.80;9.50;;;1.80;99.90;;;;;;4883270;29;20043;-89
2022/03/10 06:47:09;;;;;;;16.05;9.43;;;1.80;99.90;;;;;;4879135;29;20518;-87
2022/03/10 06:49:35;;;;;;;16.60;9.15;;;1.80;99.90;;;;;;4882474;29;20622;-87
2022/03/10 06:52:01;;;;;;;16.10;9.13;;;1.90;99.90;;;;;;4862246;29;20037;-89
2022/03/10 06:54:29;;;;;;;13.43;8.32;;;2.00;99.90;;;;;;4864238;29;20105;-90
2022/03/10 06:56:54;;;;;;;15.50;9.02;;;2.10;99.90;;;;;;4863755;29;20037;-90
2022/03/10 06:59:20;;;;;;;15.15;9.48;;;2.10;99.90;;;;;;4863969;29;20047;-89
2022/03/10 07:01:47;;;;;;;14.25;8.52;;;2.10;99.90;;;;;;4851727;29;20560;-88
2022/03/10 07:04:13;;;;;;;13.00;8.25;;;2.20;99.90;;;;;;4872282;29;20081;-89
2022/03/10 07:06:38;;;;;;;14.48;8.75;;;2.20;99.90;;;;;;4879721;29;20132;-90
2022/03/10 07:09:08;;;;;;;14.82;8.43;;;2.30;99.90;;;;;;4889851;29;20075;-90
2022/03/10 07:11:34;;;;;;;15.75;9.02;;;2.30;99.90;;;;;;4878394;29;20033;-89
2022/03/10 07:13:59;;;;;;;14.40;9.05;;;2.40;99.90;;;;;;4879411;29;20481;-90
2022/03/10 07:16:25;;;;;;;14.15;8.65;;;2.50;99.90;;;;;;4877160;29;20036;-90
2022/03/10 07:18:51;;;;;;;14.00;8.52;;;2.60;99.90;;;;;;4895594;29;20045;-90
2022/03/10 07:21:18;;;;;;;13.95;9.15;;;2.70;99.90;;;;;;4891080;29;20063;-90
2022/03/10 07:23:44;;;;;;;14.82;8.40;;;2.80;99.90;;;;;;4885155;29;20432;-90
2022/03/10 07:26:11;;;;;;;13.30;8.45;;;2.90;99.90;;;;;;4886685;29;20177;-88
2022/03/10 07:28:37;;;;;;;16.25;8.85;;;3.00;99.90;;;;;;4877024;29;20071;-90
2022/03/10 07:31:03;;;;;;;14.00;8.73;;;3.10;99.90;;;;;;4896772;29;20049;-91
2022/03/10 07:33:28;;;;;;;14.48;9.43;;;3.20;99.90;;;;;;4896799;29;20036;-90
2022/03/10 07:35:55;;;;;;;14.00;8.35;;;3.40;99.90;;;;;;4889459;29;20057;-88
2022/03/10 07:38:20;;;;;;;14.18;9.07;;;3.50;99.90;;;;;;4882516;29;20037;-88
2022/03/10 07:40:46;;;;;;;14.30;9.32;;;3.70;99.90;;;;;;4882003;29;20152;-91
2022/03/10 07:43:12;;;;;;;14.05;8.45;;;3.80;99.90;;;;;;4864600;29;20045;-92
2022/03/10 07:45:38;;;;;;;14.32;9.38;;;4.00;99.90;;;;;;4883993;29;20068;-89
2022/03/10 07:48:04;;;;;;;14.55;9.80;;;4.10;99.90;;;;;;4883806;29;20029;-88
2022/03/10 07:50:31;;;;;;;16.42;10.80;;;4.30;99.90;;;;;;4882879;29;20036;-89
2022/03/10 07:52:57;;;;;;;16.05;10.25;;;4.40;99.90;;;;;;4878497;29;20033;-89
2022/03/10 07:55:22;;;;;;;16.92;10.35;;;4.60;99.90;;;;;;4882932;29;20037;-90
2022/03/10 07:57:49;;;;;;;15.20;9.95;;;4.70;99.90;;;;;;4881335;29;20052;-89
2022/03/10 08:00:15;;;;;;;18.38;11.88;;;4.70;99.90;;;;;;4882111;29;20162;-90
2022/03/10 08:02:41;;;;;;;18.45;10.88;;;4.70;99.90;;;;;;4880668;29;20037;-92
2022/03/10 08:05:08;;;;;;;18.08;11.60;;;4.80;99.90;;;;;;4879373;29;20029;-89
2022/03/10 08:07:34;;;;;;;20.48;12.20;;;4.90;99.90;;;;;;4879589;29;20068;-86
2022/03/10 08:10:05;;;;;;;20.30;11.52;;;5.10;99.90;;;;;;4879094;29;20033;-89
2022/03/10 08:12:32;;;;;;;16.45;12.00;;;5.10;99.90;;;;;;4894893;29;20067;-90
2022/03/10 08:14:58;;;;;;;18.73;12.43;;;5.10;99.90;;;;;;4882247;29;20029;-89
2022/03/10 08:17:28;;;;;;;17.75;11.13;;;5.20;99.90;;;;;;4877453;29;20045;-88
2022/03/10 08:19:54;;;;;;;16.25;10.80;;;5.20;99.90;;;;;;4878798;29;20037;-88
2022/03/10 08:22:21;;;;;;;16.55;10.80;;;5.30;99.90;;;;;;4891593;29;20072;-90
2022/03/10 08:24:47;;;;;;;21.05;12.60;;;5.30;99.90;;;;;;4877062;29;20028;-88
2022/03/10 08:27:15;;;;;;;18.30;12.27;;;5.40;99.90;;;;;;4885559;29;20119;-88
2022/03/10 08:29:41;;;;;;;19.17;11.95;;;5.50;99.90;;;;;;4885060;29;20064;-90
2022/03/10 08:32:07;;;;;;;19.45;12.68;;;5.50;99.90;;;;;;4884395;29;20051;-90
2022/03/10 08:34:33;;;;;;;17.17;10.93;;;5.60;99.90;;;;;;4876751;29;20432;-89
2022/03/10 08:36:59;;;;;;;17.58;11.52;;;5.60;99.90;;;;;;4882260;29;20049;-89
2022/03/10 08:39:24;;;;;;;19.13;12.43;;;5.70;99.90;;;;;;4882529;29;20025;-90
2022/03/10 08:41:51;;;;;;;20.58;12.23;;;5.70;99.90;;;;;;4869778;29;20037;-91
2022/03/10 08:44:17;;;;;;;17.13;10.98;;;5.80;99.90;;;;;;4895429;29;20586;-91
2022/03/10 08:46:43;;;;;;;20.48;12.30;;;5.90;99.90;;;;;;4882416;29;20041;-88
2022/03/10 08:49:10;;;;;;;17.42;11.40;;;5.90;99.80;;;;;;4878267;29;20480;-89
2022/03/10 08:51:36;;;;;;;16.77;10.65;;;6.00;99.70;;;;;;4883566;29;20097;-91
2022/03/10 08:54:02;;;;;;;19.60;12.48;;;6.10;99.70;;;;;;4892153;29;20531;-90
2022/03/10 08:56:28;;;;;;;20.58;13.00;;;6.20;99.60;;;;;;4866636;29;20037;-92
2022/03/10 08:58:54;;;;;;;18.63;12.35;;;6.30;99.70;;;;;;4867046;29;20044;-92
2022/03/10 09:01:19;;;;;;;17.08;11.80;;;6.40;99.50;;;;;;4867102;29;20424;-91
2022/03/10 09:03:45;;;;;;;18.55;11.43;;;6.40;99.40;;;;;;4868007;29;20488;-93
2022/03/10 09:06:12;;;;;;;16.83;11.27;;;6.50;99.30;;;;;;4866788;29;20108;-91
2022/03/10 09:08:38;;;;;;;16.13;10.05;;;6.60;99.30;;;;;;4883470;29;20074;-90
2022/03/10 09:11:04;;;;;;;16.60;11.15;;;6.70;99.20;;;;;;4866965;29;20033;-91
2022/03/10 09:13:30;;;;;;;17.75;12.27;;;6.80;99.20;;;;;;4866938;29;20040;-91
2022/03/10 09:15:56;;;;;;;19.42;13.02;;;6.90;99.00;;;;;;4867184;29;20033;-90
2022/03/10 09:18:22;;;;;;;21.90;15.05;;;7.10;99.10;;;;;;4866911;29;20053;-90
2022/03/10 09:20:49;;;;;;;20.35;13.63;;;7.30;99.20;;;;;;4867148;29;20036;-90
2022/03/10 09:23:14;;;;;;;20.67;12.35;;;7.40;99.10;;;;;;4867374;29;20044;-90
2022/03/10 09:25:40;;;;;;;19.98;12.45;;;7.50;99.00;;;;;;4871761;29;20097;-89
2022/03/10 09:28:07;;;;;;;20.05;12.10;;;7.70;98.90;;;;;;4890629;29;20044;-90
2022/03/10 09:30:33;;;;;;;16.42;10.98;;;7.70;98.70;;;;;;4902100;29;20138;-91
2022/03/10 09:32:58;;;;;;;19.33;12.35;;;7.80;98.90;;;;;;4894936;29;20033;-89
2022/03/10 09:35:26;;;;;;;24.65;14.27;;;8.00;98.70;;;;;;4888061;29;20029;-91
2022/03/10 09:37:52;;;;;;;24.05;14.48;;;8.30;98.90;;;;;;4885975;29;20052;-92
2022/03/10 09:40:18;;;;;;;21.27;15.23;;;9.30;99.10;;;;;;4885673;29;20029;-91
2022/03/10 09:42:47;;;;;;;18.27;13.40;;;11.00;98.30;;;;;;4885724;29;20032;-91
2022/03/10 09:45:15;;;;;;;20.42;14.95;;;12.70;97.40;;;;;;4886096;29;20563;-91
2022/03/10 09:47:43;;;;;;;21.45;14.90;;;14.00;95.00;;;;;;4885169;29;20098;-91
2022/03/10 09:50:13;;;;;;;21.60;14.30;;;15.10;92.40;;;;;;4885092;29;20084;-91
2022/03/10 09:52:40;;;;;;;17.17;12.18;;;16.00;91.60;;;;;;4885490;29;20491;-91
2022/03/10 09:55:07;;;;;;;18.42;12.55;;;16.70;90.90;;;;;;4884707;29;20032;-91
2022/03/10 09:57:37;;;;;;;18.60;12.32;;;17.40;90.20;;;;;;4884499;29;20049;-91
2022/03/10 10:00:04;;;;;;;16.58;12.15;;;18.00;89.10;;;;;;4877097;29;20048;-90
2022/03/10 10:02:31;;;;;;;17.40;13.23;;;18.60;86.80;;;;;;4887947;29;20032;-91
2022/03/10 10:04:57;;;;;;;17.13;11.82;;;19.00;83.70;;;;;;4880292;29;20101;-91
2022/03/10 10:07:27;;;;;;;17.67;12.55;;;19.40;82.30;;;;;;4879080;29;20028;-90
2022/03/10 10:09:55;;;;;;;15.07;11.07;;;19.70;81.30;;;;;;4881208;29;20065;-89
2022/03/10 10:12:25;;;;;;;17.05;13.10;;;20.10;80.40;;;;;;4868532;29;20081;-87
2022/03/10 10:14:51;;;;;;;15.43;12.13;;;20.40;77.80;;;;;;4869249;29;20412;-88
2022/03/10 10:17:29;;;;;;;16.73;12.35;;;20.70;77.10;;;;;;4876522;29;20051;-87
2022/03/10 10:19:57;;;;;;;14.68;11.60;;;21.10;75.60;;;;;;4884692;29;20028;-86
2022/03/10 10:22:24;;;;;;;17.10;12.80;;;21.20;74.40;;;;;;4879283;29;20037;-87
2022/03/10 10:25:02;;;;;;;18.90;13.82;;;21.30;74.00;;;;;;4880572;29;20112;-87
2022/03/10 10:27:32;;;;;;;16.35;12.18;;;21.40;71.60;;;;;;4896167;29;20195;-87
2022/03/10 10:30:06;;;;;;;16.70;12.80;;;21.30;71.50;;;;;;4884375;29;20048;-87
2022/03/10 10:32:49;;;;;;;16.58;12.65;;;21.50;70.60;;;;;;4878993;29;20061;-86
2022/03/10 10:35:20;;;;;;;14.43;11.60;;;21.60;70.10;;;;;;4884067;29;20064;-86
2022/03/10 10:37:50;;;;;;;21.98;16.27;;;22.00;70.00;;;;;;4864318;29;20037;-86
2022/03/10 10:40:21;;;;;;;21.42;15.00;;;22.10;66.80;;;;;;4887996;29;20028;-86
2022/03/10 10:42:48;;;;;;;17.35;13.57;;;22.10;67.00;;;;;;4879121;29;20127;-87
2022/03/10 10:45:34;;;;;;;20.52;16.15;;;22.10;66.70;;;;;;4879729;29;20128;-87
2022/03/10 10:48:03;;;;;;;22.88;16.98;;;22.10;65.50;;;;;;4866111;29;20048;-86
2022/03/10 10:50:31;;;;;;;20.25;15.73;;;22.00;64.30;;;;;;4880065;29;20108;-90
2022/03/10 10:52:56;;;;;;;16.95;13.32;;;22.00;65.10;;;;;;4866633;29;20045;-87
2022/03/10 10:55:31;;;;;;;17.67;14.15;;;22.20;65.10;;;;;;4881862;29;20029;-87
2022/03/10 10:57:56;;;;;;;18.30;14.88;;;22.60;65.00;;;;;;4866536;29;20423;-87
2022/03/10 11:00:22;;;;;;;19.17;14.48;;;22.70;63.70;;;;;;4869142;29;20030;-86
2022/03/10 11:02:50;;;;;;;20.38;16.02;;;22.70;63.80;;;;;;4871696;29;20044;-86
2022/03/10 11:05:18;;;;;;;19.58;15.00;;;22.80;62.90;;;;;;4863518;29;20093;-88
2022/03/10 11:07:44;;;;;;;17.58;13.00;;;22.90;62.90;;;;;;4878505;29;20041;-86
2022/03/10 11:10:11;;;;;;;16.30;12.98;;;23.10;62.90;;;;;;4878769;29;20044;-86
2022/03/10 11:12:39;;;;;;;16.15;12.60;;;23.40;62.60;;;;;;4870759;29;20045;-87
2022/03/10 11:15:07;;;;;;;22.00;17.23;;;23.80;62.70;;;;;;4890611;29;20040;-88
2022/03/10 11:17:34;;;;;;;20.35;16.45;;;24.00;60.20;;;;;;4881604;29;20059;-87
2022/03/10 11:20:02;;;;;;;21.42;15.98;;;24.00;60.50;;;;;;4881560;29;20057;-86
2022/03/10 11:22:50;;;;;;;19.13;15.52;;;24.00;60.40;;;;;;4878198;29;20373;-85
2022/03/10 11:25:36;;;;;;;25.42;18.10;;;23.90;59.50;;;;;;4862328;29;20128;-87
2022/03/10 11:28:03;;;;;;;23.83;16.73;;;23.70;58.50;;;;;;4892001;29;20041;-86
2022/03/10 11:30:32;;;;;;;20.33;15.23;;;23.40;58.50;;;;;;4872212;29;20056;-87
2022/03/10 11:33:12;;;;;;;20.13;15.07;;;23.40;59.40;;;;;;4878606;29;20044;-87
2022/03/10 11:35:40;;;;;;;16.08;12.75;;;23.50;59.80;;;;;;4880564;29;20068;-86
2022/03/10 11:38:07;;;;;;;17.67;14.00;;;23.70;59.90;;;;;;4891822;29;20041;-87
2022/03/10 11:40:56;;;;;;;15.45;13.43;;;24.00;59.60;;;;;;4889838;29;20096;-86
2022/03/10 11:43:32;;;;;;;18.45;14.25;;;24.40;59.00;;;;;;4878942;29;20044;-86
2022/03/10 11:46:17;;;;;;;20.08;15.55;;;24.70;59.20;;;;;;4881264;29;20040;-87
2022/03/10 11:48:43;;;;;;;21.15;15.73;;;24.60;58.20;;;;;;4881973;29;20080;-87
2022/03/10 11:51:11;;;;;;;19.98;16.40;;;24.70;57.90;;;;;;4882606;29;20128;-87
2022/03/10 11:53:54;;;;;;;19.70;15.38;;;24.50;57.70;;;;;;4885962;29;20601;-87
2022/03/10 11:56:43;;;;;;;18.00;14.57;;;24.30;57.50;;;;;;4890832;29;20131;-89
2022/03/10 11:59:23;;;;;;;21.67;14.80;;;24.20;57.90;;;;;;4890750;29;20056;-88
2022/03/10 12:01:48;;;;;;;22.33;17.48;;;24.40;57.60;;;;;;4898821;29;20052;-87
2022/03/10 12:04:17;;;;;;;23.77;17.67;;;24.20;56.90;;;;;;4883805;29;20535;-87
2022/03/10 12:06:58;;;;;;;19.67;16.50;;;24.10;56.50;;;;;;4883656;29;20127;-86
2022/03/10 12:09:29;;;;;;;18.25;14.02;;;24.20;57.10;;;;;;4910708;29;20041;-87
2022/03/10 12:12:17;;;;;;;16.23;13.50;;;24.40;57.40;;;;;;4884031;29;20580;-86
2022/03/10 12:14:44;;;;;;;17.23;13.02;;;24.70;57.10;;;;;;4884871;29;20068;-87
2022/03/10 12:17:49;;;;;;;17.80;13.38;;;25.00;57.20;;;;;;4901376;29;20041;-87
2022/03/10 12:20:16;;;;;;;19.00;15.15;;;25.40;56.90;;;;;;4884349;29;20044;-87
2022/03/10 12:23:23;;;;;;;21.85;17.33;;;25.30;56.50;;;;;;4883195;29;20402;-87
2022/03/10 12:25:55;;;;;;;20.02;15.75;;;25.20;54.50;;;;;;4809619;29;20505;-87
2022/03/10 12:28:25;;;;;;;17.63;13.82;;;24.80;54.90;;;;;;4824066;29;20099;-88
2022/03/10 12:31:16;;;;;;;16.15;13.43;;;24.90;56.80;;;;;;4809891;29;20590;-88
2022/03/10 12:33:58;;;;;;;15.95;13.10;;;25.20;56.50;;;;;;4810194;29;20038;-88
2022/03/10 12:36:34;;;;;;;18.15;15.20;;;25.30;57.20;;;;;;4823282;29;20037;-88
2022/03/10 12:39:20;;;;;;;16.33;12.98;;;25.50;55.40;;;;;;4884840;29;20041;-87
2022/03/10 12:41:50;;;;;;;17.88;13.73;;;25.70;55.60;;;;;;4884942;29;20487;-88
2022/03/10 12:44:23;;;;;;;21.88;16.45;;;25.60;55.80;;;;;;4887604;29;20041;-90
2022/03/10 12:46:51;;;;;;;22.63;17.02;;;25.50;54.20;;;;;;4891945;29;20040;-88